Time;durP1;ratioP1;P1;durP2;ratioP2;P2;SDS_P1;SDS_P2;PMS_P1;PMS_P2;Temp;Humidity;BMP_temperature;BMP_pressure;BME280_temperature;BME280_humidity;BME280_pressure;Samples;Min_cycle;Max_cycle;Signal;HPM_P1;HPM_P2
2020/12/07 14:42:58;;;;;;;33.73;17.13;;;3.90;99.90;;;-143.32;100.00;97651.16;4687402;30;20489;-92
2020/12/07 16:04:23;;;;;;;31.60;15.73;;;4.10;99.90;;;-143.32;100.00;97577.50;4773757;30;20439;-92
2020/12/07 17:21:54;;;;;;;29.97;16.27;;;4.60;99.90;;;-143.32;100.00;97552.94;4807556;29;20420;-89
2020/12/07 17:31:55;;;;;;;27.10;15.57;;;4.60;99.90;;;-143.32;100.00;97555.00;4723061;30;20482;-91
2020/12/07 17:34:41;;;;;;;28.50;16.70;;;4.50;99.90;;;-143.32;100.00;97557.03;4789580;30;20555;-92
2020/12/07 17:37:08;;;;;;;29.47;14.80;;;4.50;99.90;;;-143.32;100.00;97542.72;4854741;29;20470;-91
2020/12/07 17:39:59;;;;;;;29.60;14.00;;;4.60;99.90;;;-143.32;100.00;97593.84;4863405;29;20442;-91
2020/12/07 17:42:29;;;;;;;28.63;15.40;;;4.50;99.90;;;-143.32;100.00;97536.56;4857409;29;20454;-90
2020/12/07 17:45:01;;;;;;;30.00;15.23;;;4.50;99.90;;;-143.32;100.00;97595.91;4864028;29;20446;-92
2020/12/07 17:47:31;;;;;;;28.87;15.30;;;4.50;99.90;;;-143.32;100.00;97565.22;4864206;29;20415;-89
2020/12/07 17:49:58;;;;;;;26.63;15.07;;;4.50;99.90;;;-143.32;100.00;97577.50;4863786;29;20450;-92
2020/12/07 17:52:28;;;;;;;28.93;15.70;;;4.50;99.90;;;-143.32;100.00;97569.31;4863767;29;20510;-90
2020/12/07 17:55:31;;;;;;;24.60;13.90;;;4.60;99.90;;;-143.32;100.00;97571.34;4863696;29;20462;-91
2020/12/07 17:58:02;;;;;;;29.13;15.83;;;4.50;99.90;;;-143.32;100.00;97583.63;4863772;29;20430;-90
2020/12/07 18:01:35;;;;;;;26.83;15.00;;;4.40;99.90;;;-143.32;100.00;97565.22;4864004;29;20457;-91
2020/12/07 18:04:02;;;;;;;34.17;19.83;;;4.40;99.90;;;-143.32;100.00;97534.53;4783485;30;20631;-91
2020/12/07 18:09:30;;;;;;;32.20;17.13;;;4.40;99.90;;;-143.32;100.00;97587.72;4837231;29;21021;-91
2020/12/07 18:12:01;;;;;;;38.13;16.10;;;4.40;99.90;;;-143.32;100.00;97557.03;4863524;29;20806;-93
2020/12/07 18:14:29;;;;;;;26.03;16.73;;;4.30;99.90;;;-143.32;100.00;97575.44;4864025;29;20909;-91
2020/12/07 18:17:02;;;;;;;33.30;16.03;;;4.30;99.90;;;-143.32;100.00;97602.03;4866349;29;20494;-90
2020/12/07 18:19:35;;;;;;;25.77;15.53;;;4.30;99.90;;;-143.32;100.00;97604.09;4863131;29;20458;-90
2020/12/07 18:22:05;;;;;;;33.50;16.40;;;4.30;99.90;;;-143.32;100.00;97595.91;4862984;29;20418;-91
2020/12/07 18:25:16;;;;;;;29.40;16.60;;;4.30;99.90;;;-143.32;100.00;97552.94;4862886;29;20449;-92
2020/12/07 18:34:56;;;;;;;32.80;18.43;;;4.10;99.90;;;-143.32;100.00;97573.41;4820997;29;20448;-89
2020/12/07 18:37:23;;;;;;;32.63;17.70;;;4.00;99.90;;;-143.32;100.00;97628.63;4862945;29;20475;-90
2020/12/07 18:39:51;;;;;;;33.27;17.60;;;4.00;99.90;;;-143.32;100.00;97585.69;4863016;29;20488;-91
2020/12/07 18:42:19;;;;;;;30.40;17.40;;;3.90;99.90;;;-143.32;100.00;97577.50;4863297;29;20434;-93
2020/12/07 18:57:18;;;;;;;33.70;18.30;;;3.70;99.90;;;-143.32;100.00;97579.53;4734595;30;21073;-92
2020/12/07 19:11:39;;;;;;;34.23;16.90;;;3.50;99.90;;;-143.32;100.00;97618.41;4631646;31;20972;-91
2020/12/07 19:14:40;;;;;;;34.20;17.47;;;3.40;99.90;;;-143.32;100.00;97642.97;4763800;29;21010;-92
2020/12/07 19:18:20;;;;;;;;;;;;;;;;;;;;;
2020/12/07 19:29:28;;;;;;;34.53;17.43;;;3.20;99.90;;;-143.32;100.00;97632.72;4699382;30;20478;-91
2020/12/07 19:32:24;;;;;;;32.90;17.90;;;3.20;99.90;;;-143.32;100.00;97671.59;4699038;30;20463;-91
2020/12/07 19:39:50;;;;;;;31.07;17.13;;;3.20;99.90;;;-143.32;100.00;97659.31;4699161;30;20888;-91
2020/12/07 19:42:20;;;;;;;40.17;19.80;;;3.10;99.90;;;-143.32;100.00;97634.78;4714423;29;20469;-93
2020/12/07 19:44:54;;;;;;;40.70;18.30;;;3.10;99.90;;;-143.32;100.00;97661.38;4787305;29;20523;-90
2020/12/07 19:51:58;;;;;;;31.10;17.10;;;3.00;99.90;;;-143.32;100.00;97649.09;4787609;30;20507;-92
2020/12/07 19:54:28;;;;;;;30.90;18.90;;;3.00;99.90;;;-143.32;100.00;97673.66;4787169;29;20453;-91
2020/12/07 19:56:59;;;;;;;34.97;18.30;;;3.00;99.90;;;-143.32;100.00;97659.31;4801798;29;21001;-92
2020/12/07 19:59:30;;;;;;;29.33;17.90;;;3.00;99.90;;;-143.32;100.00;97655.22;4861584;29;20447;-91
2020/12/07 20:01:57;;;;;;;36.63;17.43;;;2.90;99.90;;;-143.32;100.00;97667.50;4861238;29;20501;-91
2020/12/07 20:04:29;;;;;;;28.90;16.73;;;2.90;99.90;;;-143.32;100.00;97659.31;4862646;29;20481;-93
2020/12/07 20:06:56;;;;;;;26.70;15.30;;;2.90;99.90;;;-143.32;100.00;97667.50;4861826;29;20470;-92
2020/12/07 20:09:57;;;;;;;;;;;;;;;;;;;;;
2020/12/07 20:12:35;;;;;;;25.53;15.57;;;2.90;99.90;;;-143.32;100.00;97642.97;4861616;29;20456;-92
2020/12/07 20:15:05;;;;;;;34.10;17.07;;;2.90;99.90;;;-143.32;100.00;97651.16;4861866;29;20463;-92
2020/12/07 20:17:35;;;;;;;24.97;15.50;;;3.00;99.90;;;-143.32;100.00;97636.81;4861825;29;20461;-92
2020/12/07 20:20:07;;;;;;;30.57;16.20;;;2.90;99.90;;;-143.32;100.00;97661.38;4862186;29;20462;-92
2020/12/07 20:22:41;;;;;;;30.13;15.70;;;2.90;99.90;;;-143.32;100.00;97634.78;4863891;29;20479;-93
2020/12/07 20:25:22;;;;;;;21.00;14.83;;;2.90;99.90;;;-143.32;100.00;97610.22;4869399;29;20454;-91
2020/12/07 20:27:50;;;;;;;30.53;17.97;;;2.80;99.90;;;-143.32;100.00;97653.19;4866534;29;20924;-92
2020/12/07 20:37:20;;;;;;;24.73;15.00;;;2.70;99.90;;;-143.32;100.00;97663.41;4790439;29;20485;-93
2020/12/07 20:39:56;;;;;;;28.30;14.80;;;2.60;99.90;;;-143.32;100.00;97665.47;4862338;29;20506;-91
2020/12/07 20:42:23;;;;;;;25.70;15.90;;;2.60;99.90;;;-143.32;100.00;97685.94;4863086;29;20427;-92
2020/12/07 20:44:50;;;;;;;27.27;15.50;;;2.80;99.90;;;-143.32;100.00;97700.25;4866041;29;20465;-92
2020/12/07 20:47:17;;;;;;;32.13;16.73;;;2.60;99.90;;;-143.32;100.00;97655.22;4862031;29;20453;-91
2020/12/07 20:49:47;;;;;;;32.50;17.80;;;2.60;99.90;;;-143.32;100.00;97675.69;4862446;29;20442;-91
2020/12/07 20:52:17;;;;;;;28.67;17.07;;;2.70;99.90;;;-143.32;100.00;97663.41;4862553;29;20457;-93
2020/12/07 20:59:23;;;;;;;32.17;16.33;;;2.90;99.90;;;-143.32;100.00;97671.59;4862464;29;20409;-93
2020/12/07 21:02:15;;;;;;;32.03;18.63;;;3.00;99.90;;;-143.32;100.00;97651.16;4862296;29;21007;-92
2020/12/07 21:04:58;;;;;;;28.00;16.83;;;3.10;99.90;;;-143.32;100.00;97651.16;4862023;29;20462;-91
2020/12/07 21:07:49;;;;;;;33.23;18.63;;;3.20;99.90;;;-143.32;100.00;97626.59;4860599;29;20529;-92
2020/12/07 21:10:16;;;;;;;46.30;24.20;;;3.20;99.90;;;-143.32;100.00;97626.59;4861179;29;20545;-92
2020/12/07 21:12:57;;;;;;;;;;;;;;;;;;;;;
2020/12/07 21:15:24;;;;;;;25.50;15.53;;;3.30;99.90;;;-143.32;100.00;97616.38;4864911;29;20434;-91
2020/12/07 21:25:01;;;;;;;29.33;15.20;;;3.30;99.90;;;-143.32;100.00;97645.00;4753945;30;20967;-92
2020/12/07 21:27:52;;;;;;;26.57;15.87;;;3.40;99.90;;;-143.32;100.00;97575.44;4797551;29;20526;-90
2020/12/07 21:30:23;;;;;;;28.97;17.30;;;3.30;99.90;;;-143.32;100.00;97653.19;4854269;29;20476;-93
2020/12/07 21:33:37;;;;;;;29.43;16.67;;;3.40;99.90;;;-143.32;100.00;97612.28;4864055;29;20762;-92
2020/12/07 21:36:09;;;;;;;30.80;17.20;;;3.30;99.90;;;-143.32;100.00;97653.19;4863437;29;20492;-92
2020/12/07 21:38:37;;;;;;;31.87;17.50;;;3.30;99.90;;;-143.32;100.00;97659.31;4865563;29;20450;-92
2020/12/07 21:41:05;;;;;;;29.63;16.83;;;3.30;99.90;;;-143.32;100.00;97657.28;4864740;29;20832;-91
2020/12/07 21:43:36;;;;;;;27.40;15.10;;;3.30;99.90;;;-143.32;100.00;97659.31;4863858;29;20458;-92
2020/12/07 21:46:03;;;;;;;30.20;17.13;;;3.30;99.90;;;-143.32;100.00;97636.81;4863961;29;20419;-92
2020/12/07 21:55:19;;;;;;;;;;;;;;;;;;;;;
2020/12/07 21:58:02;;;;;;;35.80;19.30;;;3.00;99.90;;;-143.32;100.00;97634.78;4861696;29;20472;-92
2020/12/07 22:00:38;;;;;;;28.60;17.00;;;2.90;99.90;;;-143.32;100.00;97671.59;4862942;29;20941;-93
2020/12/07 22:03:40;;;;;;;33.77;17.30;;;2.80;99.90;;;-143.32;100.00;97667.50;4863381;29;20450;-91
2020/12/07 22:06:11;;;;;;;29.57;16.77;;;2.70;99.90;;;-143.32;100.00;97673.66;4864006;29;20956;-92
2020/12/07 22:08:42;;;;;;;29.20;17.93;;;2.70;99.90;;;-143.32;100.00;97673.66;4863453;29;20462;-91
2020/12/07 23:47:14;;;;;;;25.70;15.90;;;2.20;99.90;;;-143.32;100.00;97712.53;4777141;30;20447;-92
2020/12/07 23:54:22;;;;;;;28.57;16.50;;;2.20;99.90;;;-143.32;100.00;97671.59;4754427;30;20449;-91
2020/12/07 23:57:23;;;;;;;26.40;15.87;;;2.10;99.90;;;-143.32;100.00;97702.28;4798032;29;20482;-90
